Time;durP1;ratioP1;P1;durP2;ratioP2;P2;SDS_P1;SDS_P2;PMS_P1;PMS_P2;Temp;Humidity;BMP_temperature;BMP_pressure;BME280_temperature;BME280_humidity;BME280_pressure;Samples;Min_cycle;Max_cycle;Signal;HPM_P1;HPM_P2
2023/04/09 00:01:39;;;;;;;25.80;13.25;;;;;;;;;;6126198;23;20024;-81
2023/04/09 00:04:04;;;;;;;23.13;12.25;;;;;;;;;;6127188;23;20018;-81
2023/04/09 00:06:30;;;;;;;23.40;12.57;;;;;;;;;;6152738;23;20018;-81
2023/04/09 00:08:55;;;;;;;27.25;12.68;;;;;;;;;;6128355;23;20121;-81
2023/04/09 00:11:21;;;;;;;22.85;12.35;;;;;;;;;;6123254;23;20452;-80
2023/04/09 00:13:46;;;;;;;25.52;13.63;;;;;;;;;;6147319;23;20017;-80
2023/04/09 00:16:11;;;;;;;24.88;12.90;;;;;;;;;;6102871;23;20018;-81
2023/04/09 00:18:37;;;;;;;25.13;13.55;;;;;;;;;;6130664;23;20032;-81
2023/04/09 00:21:02;;;;;;;25.38;12.88;;;;;;;;;;6124732;23;20094;-80
2023/04/09 00:23:28;;;;;;;25.55;13.52;;;;;;;;;;6154413;23;20021;-80
2023/04/09 00:25:53;;;;;;;24.55;12.95;;;;;;;;;;6103394;23;20013;-81
2023/04/09 00:28:19;;;;;;;25.60;13.13;;;;;;;;;;6129868;23;20013;-81
2023/04/09 00:30:44;;;;;;;26.98;14.05;;;;;;;;;;6102286;23;20313;-81
2023/04/09 00:33:10;;;;;;;25.92;14.40;;;;;;;;;;6103282;23;20017;-81
2023/04/09 00:35:35;;;;;;;25.60;13.45;;;;;;;;;;6155247;23;20013;-81
2023/04/09 00:38:00;;;;;;;25.48;13.27;;;;;;;;;;6130605;23;20021;-81
2023/04/09 00:40:26;;;;;;;24.08;12.85;;;;;;;;;;6126230;23;20020;-81
2023/04/09 00:42:51;;;;;;;26.23;13.98;;;;;;;;;;6157949;23;20029;-81
2023/04/09 00:45:17;;;;;;;28.25;13.75;;;;;;;;;;6157007;23;20022;-81
2023/04/09 00:47:44;;;;;;;27.55;13.60;;;;;;;;;;6156741;23;20029;-81
2023/04/09 00:50:09;;;;;;;26.88;13.35;;;;;;;;;;6157912;23;20020;-81
2023/04/09 00:52:35;;;;;;;22.10;12.27;;;;;;;;;;6130718;23;20017;-81
2023/04/09 00:55:03;;;;;;;26.77;14.48;;;;;;;;;;6158293;23;20013;-81
2023/04/09 00:57:29;;;;;;;27.52;14.40;;;;;;;;;;6154726;23;20026;-81
2023/04/09 00:59:55;;;;;;;26.70;14.30;;;;;;;;;;6127928;23;20013;-81
2023/04/09 01:02:20;;;;;;;27.60;13.77;;;;;;;;;;6154221;23;20025;-81
2023/04/09 01:04:46;;;;;;;27.63;13.85;;;;;;;;;;6152979;23;20089;-81
2023/04/09 01:07:23;;;;;;;27.02;14.35;;;;;;;;;;6132888;23;20427;-81
2023/04/09 01:10:09;;;;;;;25.00;13.95;;;;;;;;;;6147726;23;20452;-81
2023/04/09 01:13:02;;;;;;;30.10;14.27;;;;;;;;;;6122703;23;20020;-81
2023/04/09 01:15:30;;;;;;;26.27;14.32;;;;;;;;;;6125570;23;20041;-80
2023/04/09 01:18:00;;;;;;;24.38;13.23;;;;;;;;;;6121188;23;20120;-80
2023/04/09 01:20:39;;;;;;;22.77;12.88;;;;;;;;;;6145775;23;20715;-81
2023/04/09 01:23:42;;;;;;;27.50;13.63;;;;;;;;;;6124003;23;20044;-81
2023/04/09 01:26:35;;;;;;;25.65;13.40;;;;;;;;;;6151460;23;20029;-80
2023/04/09 01:29:01;;;;;;;28.02;13.75;;;;;;;;;;6153105;23;20020;-80
2023/04/09 01:31:31;;;;;;;26.63;12.93;;;;;;;;;;6128513;23;20130;-81
2023/04/09 01:33:57;;;;;;;26.95;14.05;;;;;;;;;;6101444;23;20415;-80
2023/04/09 01:36:23;;;;;;;28.15;13.98;;;;;;;;;;6098501;23;20021;-81
2023/04/09 01:38:50;;;;;;;28.95;14.13;;;;;;;;;;6122944;23;20028;-81
2023/04/09 01:41:17;;;;;;;28.70;14.03;;;;;;;;;;6120949;23;20044;-80
2023/04/09 01:43:43;;;;;;;;;;;;;;;;;;6121962;23;20300;-81
2023/04/09 01:46:08;;;;;;;25.17;13.40;;;;;;;;;;6148265;23;19920;-81
2023/04/09 01:48:34;;;;;;;28.55;13.73;;;;;;;;;;6122532;23;20014;-81
2023/04/09 01:51:00;;;;;;;25.60;14.13;;;;;;;;;;6098130;23;20032;-81
2023/04/09 01:53:29;;;;;;;27.83;14.23;;;;;;;;;;6095935;23;20028;-81
2023/04/09 01:55:55;;;;;;;26.90;13.70;;;;;;;;;;6124338;23;20028;-81
2023/04/09 01:58:21;;;;;;;24.65;13.30;;;;;;;;;;6127223;23;20112;-81
2023/04/09 02:00:47;;;;;;;25.00;13.40;;;;;;;;;;6151679;23;20013;-81
2023/04/09 02:03:16;;;;;;;28.92;13.52;;;;;;;;;;6127605;23;20018;-80
2023/04/09 02:05:45;;;;;;;24.58;12.55;;;;;;;;;;6125143;23;20021;-80
2023/04/09 02:08:16;;;;;;;27.70;12.88;;;;;;;;;;6126388;23;20107;-80
2023/04/09 02:10:57;;;;;;;27.33;13.57;;;;;;;;;;6123409;23;20523;-80
2023/04/09 02:13:25;;;;;;;22.92;12.50;;;;;;;;;;6125927;23;20451;-80
2023/04/09 02:15:51;;;;;;;27.90;14.35;;;;;;;;;;6154354;23;20758;-80
2023/04/09 02:18:24;;;;;;;26.85;13.40;;;;;;;;;;6103866;23;20499;-80
2023/04/09 02:20:49;;;;;;;29.63;13.27;;;;;;;;;;6124438;23;20073;-80
2023/04/09 02:23:16;;;;;;;26.13;12.93;;;;;;;;;;6098820;23;20530;-81
2023/04/09 02:25:42;;;;;;;24.80;12.82;;;;;;;;;;6146789;23;20018;-80
2023/04/09 02:28:07;;;;;;;23.70;13.07;;;;;;;;;;6124828;23;20017;-80
2023/04/09 02:30:33;;;;;;;27.23;13.55;;;;;;;;;;6124448;23;20024;-80
2023/04/09 02:32:58;;;;;;;27.35;14.15;;;;;;;;;;6098699;23;20359;-80
2023/04/09 02:35:24;;;;;;;25.35;13.70;;;;;;;;;;6119353;23;20017;-80
2023/04/09 02:37:49;;;;;;;25.88;12.98;;;;;;;;;;6120796;23;20095;-79
2023/04/09 02:40:14;;;;;;;32.95;15.40;;;;;;;;;;6122929;23;20018;-80
2023/04/09 02:42:40;;;;;;;25.90;12.63;;;;;;;;;;6150024;23;20017;-80
2023/04/09 02:45:06;;;;;;;24.70;12.88;;;;;;;;;;6125124;23;20029;-80
2023/04/09 02:47:31;;;;;;;25.05;12.98;;;;;;;;;;6098197;23;20491;-80
2023/04/09 02:49:57;;;;;;;25.73;12.95;;;;;;;;;;6151421;23;20021;-80
2023/04/09 02:52:23;;;;;;;22.15;12.38;;;;;;;;;;6123194;23;20080;-80
2023/04/09 02:54:49;;;;;;;24.23;12.00;;;;;;;;;;6101558;23;20028;-80
2023/04/09 02:57:14;;;;;;;24.23;12.70;;;;;;;;;;6149385;23;20390;-80
2023/04/09 02:59:40;;;;;;;26.58;13.05;;;;;;;;;;6098447;23;20465;-80
2023/04/09 03:02:05;;;;;;;26.25;13.25;;;;;;;;;;6098648;23;20085;-80
2023/04/09 03:04:31;;;;;;;26.58;13.40;;;;;;;;;;6126545;23;20020;-80
2023/04/09 03:06:56;;;;;;;26.27;13.68;;;;;;;;;;6152183;23;20010;-79
2023/04/09 03:09:21;;;;;;;27.55;14.48;;;;;;;;;;6124875;23;20024;-80
2023/04/09 03:11:47;;;;;;;28.35;14.20;;;;;;;;;;6148262;23;20091;-80
2023/04/09 03:14:12;;;;;;;25.08;13.15;;;;;;;;;;6154287;23;20057;-80
2023/04/09 03:16:38;;;;;;;24.58;11.88;;;;;;;;;;6156084;23;20720;-80
2023/04/09 03:19:03;;;;;;;26.20;13.93;;;;;;;;;;6097597;23;20028;-80
2023/04/09 03:21:28;;;;;;;25.08;13.23;;;;;;;;;;6120209;23;20073;-80
2023/04/09 03:23:54;;;;;;;24.10;12.93;;;;;;;;;;6122490;23;20021;-79
2023/04/09 03:26:19;;;;;;;26.08;13.45;;;;;;;;;;6123684;23;20017;-80
2023/04/09 03:28:44;;;;;;;25.83;12.90;;;;;;;;;;6127439;23;20017;-80
2023/04/09 03:31:10;;;;;;;28.25;13.43;;;;;;;;;;6103549;23;20103;-81
2023/04/09 03:33:36;;;;;;;25.05;12.70;;;;;;;;;;6104031;23;20013;-81
2023/04/09 03:36:01;;;;;;;26.33;13.00;;;;;;;;;;6151206;23;20033;-81
2023/04/09 03:38:26;;;;;;;29.33;14.18;;;;;;;;;;6126255;23;20472;-80
2023/04/09 03:40:52;;;;;;;24.58;12.75;;;;;;;;;;6127200;23;20060;-81
2023/04/09 03:43:17;;;;;;;26.58;13.27;;;;;;;;;;6149825;23;20037;-81
2023/04/09 03:45:42;;;;;;;27.13;13.73;;;;;;;;;;6124190;23;20043;-82
2023/04/09 03:48:08;;;;;;;21.95;12.35;;;;;;;;;;6098912;23;20017;-80
2023/04/09 03:50:40;;;;;;;27.42;13.70;;;;;;;;;;6122839;23;20040;-80
2023/04/09 03:53:06;;;;;;;26.30;13.77;;;;;;;;;;6098351;23;20018;-80
2023/04/09 03:55:31;;;;;;;26.30;13.63;;;;;;;;;;6122914;23;20016;-81
2023/04/09 03:57:56;;;;;;;27.98;13.77;;;;;;;;;;6147644;23;20088;-81
2023/04/09 04:00:22;;;;;;;25.38;12.70;;;;;;;;;;6146298;23;20021;-81
2023/04/09 04:02:47;;;;;;;26.05;13.50;;;;;;;;;;6148111;23;20522;-81
2023/04/09 04:05:13;;;;;;;30.33;14.85;;;;;;;;;;6147257;23;20033;-81
2023/04/09 04:07:38;;;;;;;28.27;13.48;;;;;;;;;;6147429;23;20017;-81
2023/04/09 04:10:07;;;;;;;31.05;14.35;;;;;;;;;;6120560;23;20056;-81
2023/04/09 04:12:33;;;;;;;29.20;14.80;;;;;;;;;;6095001;23;20017;-80
2023/04/09 04:14:58;;;;;;;30.40;14.75;;;;;;;;;;6147092;23;20092;-81
2023/04/09 04:17:23;;;;;;;29.15;13.80;;;;;;;;;;6146288;23;20028;-80
2023/04/09 04:19:49;;;;;;;29.60;14.32;;;;;;;;;;6119484;23;20070;-80
2023/04/09 04:22:14;;;;;;;29.00;14.23;;;;;;;;;;6118631;23;20028;-81
2023/04/09 04:24:39;;;;;;;27.48;13.95;;;;;;;;;;6146543;23;20028;-81
2023/04/09 04:27:05;;;;;;;30.27;14.90;;;;;;;;;;6148240;23;20021;-81
2023/04/09 04:29:31;;;;;;;30.27;14.45;;;;;;;;;;6125506;23;20017;-81
2023/04/09 04:31:56;;;;;;;34.15;15.23;;;;;;;;;;6120538;23;20024;-81
2023/04/09 04:34:22;;;;;;;29.25;14.73;;;;;;;;;;6151110;23;20452;-81
2023/04/09 04:36:47;;;;;;;28.67;14.00;;;;;;;;;;6151570;23;20100;-80
2023/04/09 04:39:12;;;;;;;28.17;14.23;;;;;;;;;;6126961;23;20021;-81
2023/04/09 04:41:38;;;;;;;30.08;14.32;;;;;;;;;;6103140;23;20036;-81
2023/04/09 04:44:03;;;;;;;27.90;14.63;;;;;;;;;;6151531;23;20032;-80
2023/04/09 04:46:28;;;;;;;28.10;14.48;;;;;;;;;;6101507;23;20376;-81
2023/04/09 04:48:54;;;;;;;26.55;13.75;;;;;;;;;;6121619;23;20544;-81
2023/04/09 04:51:19;;;;;;;27.35;14.80;;;;;;;;;;6147120;23;20027;-80
2023/04/09 04:53:44;;;;;;;28.92;14.25;;;;;;;;;;6151687;23;20033;-80
2023/04/09 04:56:13;;;;;;;24.67;13.10;;;;;;;;;;6149169;23;20084;-80
2023/04/09 04:58:39;;;;;;;27.42;13.18;;;;;;;;;;6148639;23;20360;-81
2023/04/09 05:01:04;;;;;;;25.13;12.40;;;;;;;;;;6122260;23;20036;-80
2023/04/09 05:03:29;;;;;;;25.45;12.85;;;;;;;;;;6102554;23;20052;-80
2023/04/09 05:05:55;;;;;;;24.60;13.48;;;;;;;;;;6150794;23;20013;-81
2023/04/09 05:08:20;;;;;;;27.73;12.57;;;;;;;;;;6098555;23;20159;-81
2023/04/09 05:10:46;;;;;;;25.10;13.48;;;;;;;;;;6120949;23;20024;-81
2023/04/09 05:13:11;;;;;;;25.02;12.15;;;;;;;;;;6123623;23;20032;-81
2023/04/09 05:15:40;;;;;;;27.33;12.95;;;;;;;;;;6152381;23;20013;-81
2023/04/09 05:18:06;;;;;;;28.25;13.93;;;;;;;;;;6149007;23;20036;-81
2023/04/09 05:20:32;;;;;;;27.77;13.68;;;;;;;;;;6120627;23;20440;-81
2023/04/09 05:22:57;;;;;;;25.48;13.35;;;;;;;;;;6096523;23;20096;-81
2023/04/09 05:25:23;;;;;;;29.23;13.32;;;;;;;;;;6149540;23;20021;-81
2023/04/09 05:27:48;;;;;;;29.40;15.32;;;;;;;;;;6150142;23;20513;-80
2023/04/09 05:30:14;;;;;;;29.98;14.35;;;;;;;;;;6125041;23;20090;-80
2023/04/09 05:32:40;;;;;;;30.30;14.52;;;;;;;;;;6124107;23;20017;-81
2023/04/09 05:35:05;;;;;;;29.30;14.00;;;;;;;;;;6124789;23;20093;-81
2023/04/09 05:37:31;;;;;;;31.33;14.07;;;;;;;;;;6152098;23;20021;-80
2023/04/09 05:39:56;;;;;;;31.73;14.98;;;;;;;;;;6124237;23;20112;-81
2023/04/09 05:42:22;;;;;;;34.22;14.55;;;;;;;;;;6126540;23;20081;-81
2023/04/09 05:44:47;;;;;;;31.90;15.02;;;;;;;;;;6127168;23;20063;-81
2023/04/09 05:47:12;;;;;;;31.15;14.88;;;;;;;;;;6150833;23;20021;-81
2023/04/09 05:49:38;;;;;;;27.20;14.07;;;;;;;;;;6103826;23;20305;-80
2023/04/09 05:52:03;;;;;;;30.92;14.23;;;;;;;;;;6123292;23;20017;-81
2023/04/09 05:54:30;;;;;;;30.33;14.02;;;;;;;;;;6148904;23;20017;-81
2023/04/09 05:56:55;;;;;;;29.70;14.05;;;;;;;;;;6099125;23;20068;-81
2023/04/09 05:59:21;;;;;;;24.85;13.15;;;;;;;;;;6121746;23;20452;-81
2023/04/09 06:01:46;;;;;;;28.23;13.43;;;;;;;;;;6122793;23;20444;-81
2023/04/09 06:04:12;;;;;;;28.48;14.07;;;;;;;;;;6146511;23;20017;-81
2023/04/09 06:06:37;;;;;;;28.33;14.20;;;;;;;;;;6119533;23;20367;-81
2023/04/09 06:09:03;;;;;;;26.63;14.30;;;;;;;;;;6118461;23;20030;-80
2023/04/09 06:11:29;;;;;;;29.55;14.60;;;;;;;;;;6118338;23;20018;-81
2023/04/09 06:13:54;;;;;;;31.58;14.38;;;;;;;;;;6091975;23;20018;-81
2023/04/09 06:16:20;;;;;;;27.30;13.30;;;;;;;;;;6094744;23;20627;-81
2023/04/09 06:18:47;;;;;;;28.67;14.23;;;;;;;;;;6118748;23;20018;-80
2023/04/09 06:21:13;;;;;;;31.88;14.40;;;;;;;;;;6144383;23;20132;-81
2023/04/09 06:23:39;;;;;;;29.92;15.38;;;;;;;;;;6094697;23;20463;-81
2023/04/09 06:26:04;;;;;;;28.05;14.63;;;;;;;;;;6094596;23;20025;-80
2023/04/09 06:28:30;;;;;;;28.15;14.43;;;;;;;;;;6094801;23;20024;-81
2023/04/09 06:30:56;;;;;;;30.10;14.07;;;;;;;;;;6144481;23;20017;-78
2023/04/09 06:33:22;;;;;;;28.10;14.23;;;;;;;;;;6118143;23;20020;-79
2023/04/09 06:35:48;;;;;;;26.83;13.40;;;;;;;;;;6144218;23;20712;-77
2023/04/09 06:38:14;;;;;;;29.50;15.20;;;;;;;;;;6118350;23;20140;-77
2023/04/09 06:40:40;;;;;;;27.38;14.13;;;;;;;;;;6093620;23;20018;-77
2023/04/09 06:43:05;;;;;;;29.23;14.38;;;;;;;;;;6145237;23;20064;-77
2023/04/09 06:45:32;;;;;;;29.60;14.75;;;;;;;;;;6117374;23;20068;-81
2023/04/09 06:47:58;;;;;;;28.42;14.55;;;;;;;;;;6118551;23;20451;-80
2023/04/09 06:50:23;;;;;;;28.25;14.02;;;;;;;;;;6093264;23;20105;-80
2023/04/09 06:52:50;;;;;;;26.55;13.75;;;;;;;;;;6093909;23;20089;-80
2023/04/09 06:55:15;;;;;;;31.17;14.75;;;;;;;;;;6116763;23;20474;-80
2023/04/09 06:57:40;;;;;;;28.45;15.07;;;;;;;;;;6118161;23;20112;-80
2023/04/09 07:00:07;;;;;;;30.60;15.57;;;;;;;;;;6119384;23;20025;-81
2023/04/09 07:02:32;;;;;;;29.33;14.40;;;;;;;;;;6117990;23;20093;-80
2023/04/09 07:04:58;;;;;;;28.08;14.63;;;;;;;;;;6117358;23;20046;-81
2023/04/09 07:07:23;;;;;;;30.73;14.93;;;;;;;;;;6117455;23;20017;-80
2023/04/09 07:09:49;;;;;;;28.35;15.43;;;;;;;;;;6094073;23;20017;-80
2023/04/09 07:12:34;;;;;;;34.58;16.67;;;;;;;;;;6093256;23;20287;-80
2023/04/09 07:15:01;;;;;;;25.88;13.50;;;;;;;;;;6118252;23;20104;-81
2023/04/09 07:17:27;;;;;;;28.58;14.52;;;;;;;;;;6093663;23;20064;-80
2023/04/09 07:19:53;;;;;;;26.42;14.00;;;;;;;;;;6094196;23;20014;-81
2023/04/09 07:22:26;;;;;;;25.73;13.07;;;;;;;;;;6149480;23;20028;-81
2023/04/09 07:24:54;;;;;;;25.05;13.45;;;;;;;;;;6119300;23;20005;-81
2023/04/09 07:27:24;;;;;;;26.95;14.50;;;;;;;;;;6117733;23;20052;-81
2023/04/09 07:29:49;;;;;;;24.92;13.90;;;;;;;;;;6119250;23;20092;-81
2023/04/09 07:32:15;;;;;;;24.73;13.50;;;;;;;;;;6143671;23;20021;-81
2023/04/09 07:34:42;;;;;;;26.92;13.68;;;;;;;;;;6093917;23;20010;-81
2023/04/09 07:37:07;;;;;;;26.00;14.90;;;;;;;;;;6120419;23;20025;-81
2023/04/09 07:39:33;;;;;;;25.80;14.25;;;;;;;;;;6145606;23;20013;-81
2023/04/09 07:42:02;;;;;;;24.27;13.40;;;;;;;;;;6095427;23;20021;-81
2023/04/09 07:44:28;;;;;;;26.95;13.70;;;;;;;;;;6102298;23;20475;-81
2023/04/09 07:46:53;;;;;;;22.45;12.88;;;;;;;;;;6119408;23;20028;-81
2023/04/09 07:49:18;;;;;;;23.48;13.40;;;;;;;;;;6119749;23;20535;-81
2023/04/09 07:51:44;;;;;;;27.45;14.07;;;;;;;;;;6144488;23;20040;-81
2023/04/09 07:54:09;;;;;;;25.40;13.02;;;;;;;;;;6120407;23;20127;-81
2023/04/09 07:56:35;;;;;;;25.90;13.70;;;;;;;;;;6146616;23;20025;-80
2023/04/09 07:59:00;;;;;;;20.70;12.05;;;;;;;;;;6147264;23;20021;-80
2023/04/09 08:01:26;;;;;;;22.98;11.95;;;;;;;;;;6120121;23;20119;-80
2023/04/09 08:03:51;;;;;;;24.25;12.77;;;;;;;;;;6146171;23;20018;-80
2023/04/09 08:06:17;;;;;;;21.90;12.02;;;;;;;;;;6120284;23;20017;-80
2023/04/09 08:08:42;;;;;;;22.85;12.80;;;;;;;;;;6120102;23;20009;-80
2023/04/09 08:11:07;;;;;;;22.92;13.10;;;;;;;;;;6146273;23;20088;-80
2023/04/09 08:13:33;;;;;;;23.10;11.65;;;;;;;;;;6119817;23;20017;-80
2023/04/09 08:16:02;;;;;;;18.88;11.52;;;;;;;;;;6118450;23;20135;-82
2023/04/09 08:18:28;;;;;;;20.10;11.75;;;;;;;;;;6119567;23;20057;-81
2023/04/09 08:20:55;;;;;;;20.70;11.80;;;;;;;;;;6119661;23;20017;-82
2023/04/09 08:23:21;;;;;;;20.08;11.73;;;;;;;;;;6119703;23;20021;-81
2023/04/09 08:25:46;;;;;;;21.15;11.88;;;;;;;;;;6119519;23;20462;-81
2023/04/09 08:28:11;;;;;;;18.77;11.48;;;;;;;;;;6118949;23;20021;-80
2023/04/09 08:30:37;;;;;;;20.05;11.48;;;;;;;;;;6146272;23;20298;-81
2023/04/09 08:33:02;;;;;;;19.00;12.15;;;;;;;;;;6145780;23;20088;-81
2023/04/09 08:35:31;;;;;;;21.13;11.88;;;;;;;;;;6118878;23;20049;-81
2023/04/09 08:37:58;;;;;;;22.75;12.20;;;;;;;;;;6119697;23;20036;-81
2023/04/09 08:40:23;;;;;;;21.02;11.98;;;;;;;;;;6145222;23;20021;-81
2023/04/09 08:42:54;;;;;;;20.73;12.07;;;;;;;;;;6120343;23;20432;-81
2023/04/09 08:45:20;;;;;;;19.05;11.80;;;;;;;;;;6119274;23;20026;-82
2023/04/09 08:47:46;;;;;;;19.50;11.63;;;;;;;;;;6145313;23;20065;-81
2023/04/09 08:50:13;;;;;;;19.13;12.25;;;;;;;;;;6095242;23;20109;-82
2023/04/09 08:52:39;;;;;;;20.33;12.77;;;;;;;;;;6095391;23;20391;-81
2023/04/09 08:55:05;;;;;;;19.52;11.45;;;;;;;;;;6120037;23;20093;-81
2023/04/09 08:57:37;;;;;;;18.35;11.75;;;;;;;;;;6094258;23;20017;-81
2023/04/09 09:00:03;;;;;;;19.20;11.70;;;;;;;;;;6144900;23;20440;-81
2023/04/09 09:02:30;;;;;;;18.23;11.68;;;;;;;;;;6144656;23;20018;-81
2023/04/09 09:04:59;;;;;;;19.30;12.40;;;;;;;;;;6145184;23;20786;-81
2023/04/09 09:07:28;;;;;;;18.60;12.05;;;;;;;;;;6118197;23;20033;-80
2023/04/09 09:09:58;;;;;;;17.83;11.25;;;;;;;;;;6145258;23;20054;-80
2023/04/09 09:12:40;;;;;;;18.00;11.65;;;;;;;;;;6118880;23;20029;-79
2023/04/09 09:15:27;;;;;;;17.67;11.23;;;;;;;;;;6119537;23;20052;-81
2023/04/09 09:17:56;;;;;;;;;;;;;;;;;;6161600;23;20554;-84
2023/04/09 09:20:22;;;;;;;16.45;11.30;;;;;;;;;;6136907;23;19980;-84
2023/04/09 09:22:50;;;;;;;16.92;11.60;;;;;;;;;;6137573;23;20020;-84
2023/04/09 09:25:15;;;;;;;17.25;11.40;;;;;;;;;;6134758;23;20073;-84
2023/04/09 09:27:42;;;;;;;15.63;11.05;;;;;;;;;;6110670;23;20013;-83
2023/04/09 09:30:09;;;;;;;16.88;11.23;;;;;;;;;;6134966;23;20023;-82
2023/04/09 09:32:35;;;;;;;15.10;10.52;;;;;;;;;;6118516;23;20024;-83
2023/04/09 09:35:05;;;;;;;15.93;10.98;;;;;;;;;;6119319;23;20018;-83
2023/04/09 09:37:31;;;;;;;15.48;10.95;;;;;;;;;;6118387;23;20056;-83
2023/04/09 09:39:57;;;;;;;16.63;10.98;;;;;;;;;;6144588;23;20016;-82
2023/04/09 09:42:23;;;;;;;13.75;10.30;;;;;;;;;;6144599;23;20025;-82
2023/04/09 09:44:49;;;;;;;16.73;11.10;;;;;;;;;;6118258;23;20515;-82
2023/04/09 09:47:17;;;;;;;16.13;11.27;;;;;;;;;;6118635;23;20024;-85
2023/04/09 09:49:42;;;;;;;17.88;11.65;;;;;;;;;;6146472;23;20009;-85
2023/04/09 09:52:09;;;;;;;20.20;11.98;;;;;;;;;;6145801;23;20021;-81
2023/04/09 09:54:42;;;;;;;16.20;11.23;;;;;;;;;;6095372;23;20025;-82
2023/04/09 09:57:14;;;;;;;14.85;10.40;;;;;;;;;;6119053;23;20495;-82
2023/04/09 09:59:43;;;;;;;15.57;11.07;;;;;;;;;;6118739;23;20474;-82
2023/04/09 10:02:19;;;;;;;17.73;11.93;;;;;;;;;;6118665;23;20068;-81
2023/04/09 10:04:48;;;;;;;18.23;12.35;;;;;;;;;;6093719;23;20049;-81
2023/04/09 10:07:14;;;;;;;19.75;13.00;;;;;;;;;;6118686;23;20017;-83
2023/04/09 10:09:42;;;;;;;19.45;12.32;;;;;;;;;;6145131;23;20520;-81
2023/04/09 10:12:08;;;;;;;18.65;12.18;;;;;;;;;;6144354;23;20025;-81
2023/04/09 10:14:34;;;;;;;20.45;12.57;;;;;;;;;;6118932;23;20013;-80
2023/04/09 10:17:00;;;;;;;20.35;12.52;;;;;;;;;;6095696;23;20033;-79
2023/04/09 10:19:26;;;;;;;20.17;12.02;;;;;;;;;;6150154;23;20459;-82
2023/04/09 10:22:08;;;;;;;21.65;12.68;;;;;;;;;;6119859;23;20024;-81
2023/04/09 10:24:34;;;;;;;18.58;11.57;;;;;;;;;;6098531;23;20021;-82
2023/04/09 10:27:13;;;;;;;18.40;11.40;;;;;;;;;;6120135;23;20021;-81
2023/04/09 10:29:46;;;;;;;18.98;11.60;;;;;;;;;;6120227;23;20029;-81
2023/04/09 10:32:33;;;;;;;19.13;12.50;;;;;;;;;;6121811;23;20080;-82
2023/04/09 10:34:59;;;;;;;18.52;11.60;;;;;;;;;;6089721;23;20023;-82
2023/04/09 10:37:26;;;;;;;17.48;11.45;;;;;;;;;;6067260;23;20154;-81
2023/04/09 10:39:52;;;;;;;20.17;12.15;;;;;;;;;;6093448;23;20044;-82
2023/04/09 10:42:29;;;;;;;20.40;12.60;;;;;;;;;;6058682;23;20022;-80
2023/04/09 10:45:05;;;;;;;18.08;12.18;;;;;;;;;;6083030;23;20070;-81
2023/04/09 10:47:32;;;;;;;18.52;11.93;;;;;;;;;;6087193;23;20571;-84
2023/04/09 10:50:16;;;;;;;16.77;11.90;;;;;;;;;;6083573;23;20022;-83
2023/04/09 10:52:43;;;;;;;16.42;12.00;;;;;;;;;;6082000;23;20046;-83
2023/04/09 10:55:09;;;;;;;16.35;11.48;;;;;;;;;;6083054;23;20030;-85
2023/04/09 10:57:35;;;;;;;16.20;10.93;;;;;;;;;;6080553;23;20029;-85
2023/04/09 11:00:00;;;;;;;16.40;11.50;;;;;;;;;;6057905;23;20027;-85
2023/04/09 11:02:44;;;;;;;17.23;11.82;;;;;;;;;;6033666;23;20108;-85
2023/04/09 11:05:27;;;;;;;16.02;11.05;;;;;;;;;;6081794;23;20065;-85
2023/04/09 11:08:01;;;;;;;15.48;10.88;;;;;;;;;;6082293;23;20026;-85
2023/04/09 11:10:27;;;;;;;14.48;10.75;;;;;;;;;;6081876;23;20548;-84
2023/04/09 11:12:53;;;;;;;15.32;10.73;;;;;;;;;;6114804;23;20128;-84
2023/04/09 11:15:19;;;;;;;13.98;10.40;;;;;;;;;;6118628;23;20039;-85
2023/04/09 11:17:48;;;;;;;16.75;11.68;;;;;;;;;;6120185;23;20048;-84
2023/04/09 11:20:16;;;;;;;15.15;10.88;;;;;;;;;;6146072;23;20028;-84
2023/04/09 11:22:41;;;;;;;14.98;11.55;;;;;;;;;;6120018;23;20017;-84
2023/04/09 11:25:07;;;;;;;16.10;11.40;;;;;;;;;;6147334;23;20029;-85
2023/04/09 11:27:39;;;;;;;15.23;10.35;;;;;;;;;;6145241;23;20135;-84
2023/04/09 11:30:05;;;;;;;16.90;11.10;;;;;;;;;;6121095;23;20356;-84
2023/04/09 11:32:32;;;;;;;14.95;10.75;;;;;;;;;;6145144;23;20017;-84
2023/04/09 11:34:57;;;;;;;14.75;11.02;;;;;;;;;;6146637;23;20472;-84
2023/04/09 11:37:22;;;;;;;14.82;10.55;;;;;;;;;;6144912;23;20096;-84
2023/04/09 11:39:52;;;;;;;16.65;10.65;;;;;;;;;;6146102;23;20013;-84
2023/04/09 11:42:18;;;;;;;13.82;10.00;;;;;;;;;;6095420;23;20025;-84
2023/04/09 11:44:44;;;;;;;14.98;10.45;;;;;;;;;;6119202;23;20025;-84
2023/04/09 11:47:11;;;;;;;13.40;9.77;;;;;;;;;;6145359;23;20038;-83
2023/04/09 11:49:36;;;;;;;15.23;10.45;;;;;;;;;;6121090;23;20640;-84
2023/04/09 11:52:02;;;;;;;14.68;9.77;;;;;;;;;;6119121;23;20040;-84
2023/04/09 11:54:34;;;;;;;13.30;9.73;;;;;;;;;;6096366;23;20464;-85
2023/04/09 11:57:00;;;;;;;13.15;9.75;;;;;;;;;;6145072;23;20023;-84
2023/04/09 11:59:26;;;;;;;13.43;9.10;;;;;;;;;;6146245;23;20025;-84
2023/04/09 12:01:51;;;;;;;13.52;9.55;;;;;;;;;;6145852;23;20036;-84
2023/04/09 12:04:23;;;;;;;11.88;8.90;;;;;;;;;;6126868;23;20352;-82
2023/04/09 12:06:48;;;;;;;12.60;9.02;;;;;;;;;;6157559;23;20436;-82
2023/04/09 12:09:15;;;;;;;10.85;8.07;;;;;;;;;;6156144;23;20033;-82
2023/04/09 12:11:42;;;;;;;12.02;8.25;;;;;;;;;;6128603;23;20013;-82
2023/04/09 12:14:12;;;;;;;12.23;8.55;;;;;;;;;;6130526;23;20021;-81
2023/04/09 12:16:40;;;;;;;12.07;8.10;;;;;;;;;;6159469;23;20025;-82
2023/04/09 12:19:06;;;;;;;13.43;8.70;;;;;;;;;;6160740;23;20106;-82
2023/04/09 12:21:49;;;;;;;15.07;9.77;;;;;;;;;;6133193;23;20081;-81
2023/04/09 12:24:16;;;;;;;14.45;9.50;;;;;;;;;;6128920;23;20100;-81
2023/04/09 12:26:41;;;;;;;14.55;9.18;;;;;;;;;;6120929;23;20387;-81
2023/04/09 12:29:07;;;;;;;13.35;8.15;;;;;;;;;;6130669;23;20072;-81
2023/04/09 12:31:32;;;;;;;14.65;9.32;;;;;;;;;;6133608;23;20013;-80
2023/04/09 12:33:58;;;;;;;13.57;8.77;;;;;;;;;;6110149;23;20085;-80
2023/04/09 12:36:23;;;;;;;14.73;9.20;;;;;;;;;;6128305;23;20117;-81
2023/04/09 12:38:49;;;;;;;16.70;9.20;;;;;;;;;;6153870;23;20024;-81
2023/04/09 12:41:15;;;;;;;14.18;8.60;;;;;;;;;;6131772;23;20021;-81
2023/04/09 12:43:42;;;;;;;14.68;8.85;;;;;;;;;;6156891;23;20053;-81
2023/04/09 12:46:08;;;;;;;14.75;8.35;;;;;;;;;;6099532;23;20014;-80
2023/04/09 12:48:34;;;;;;;14.90;8.07;;;;;;;;;;6148083;23;20024;-81
2023/04/09 12:50:59;;;;;;;16.38;7.68;;;;;;;;;;6145178;23;20104;-82
2023/04/09 12:53:25;;;;;;;13.55;7.95;;;;;;;;;;6146550;23;20387;-80
2023/04/09 12:55:50;;;;;;;13.18;7.13;;;;;;;;;;6146144;23;20014;-81
2023/04/09 12:58:16;;;;;;;16.52;8.48;;;;;;;;;;6146445;23;20025;-81
2023/04/09 13:00:41;;;;;;;14.63;7.45;;;;;;;;;;6120178;23;20025;-80
2023/04/09 13:03:06;;;;;;;15.23;8.45;;;;;;;;;;6120000;23;20017;-81
2023/04/09 13:05:34;;;;;;;13.30;7.63;;;;;;;;;;6144978;23;20063;-82
2023/04/09 13:08:00;;;;;;;13.25;6.70;;;;;;;;;;6145945;23;20017;-81
2023/04/09 13:10:25;;;;;;;11.77;6.57;;;;;;;;;;6118939;23;20027;-82
2023/04/09 13:12:51;;;;;;;13.13;6.80;;;;;;;;;;6119294;23;20010;-82
2023/04/09 13:15:16;;;;;;;12.32;6.97;;;;;;;;;;6144678;23;20044;-82
2023/04/09 13:17:42;;;;;;;13.43;7.32;;;;;;;;;;6145054;23;20014;-82
2023/04/09 13:20:08;;;;;;;13.15;7.32;;;;;;;;;;6119844;23;20018;-83
2023/04/09 13:22:33;;;;;;;12.90;7.45;;;;;;;;;;6144756;23;20324;-82
2023/04/09 13:24:58;;;;;;;14.55;8.05;;;;;;;;;;6145727;23;20018;-82
2023/04/09 13:27:24;;;;;;;15.45;8.05;;;;;;;;;;6144677;23;20045;-82
2023/04/09 13:29:49;;;;;;;12.40;6.97;;;;;;;;;;6145372;23;20024;-82
2023/04/09 13:32:15;;;;;;;13.23;7.72;;;;;;;;;;6093397;23;20583;-82
2023/04/09 13:34:40;;;;;;;12.68;7.40;;;;;;;;;;6118905;23;20039;-82
2023/04/09 13:37:06;;;;;;;11.82;6.97;;;;;;;;;;6145367;23;20017;-82
2023/04/09 13:39:31;;;;;;;11.20;6.72;;;;;;;;;;6119166;23;20449;-82
2023/04/09 13:41:57;;;;;;;12.23;6.68;;;;;;;;;;6143780;23;20394;-81
2023/04/09 13:44:23;;;;;;;14.25;6.78;;;;;;;;;;6145257;23;20033;-82
2023/04/09 13:46:49;;;;;;;10.68;5.70;;;;;;;;;;6119023;23;20101;-82
2023/04/09 13:49:15;;;;;;;8.55;5.35;;;;;;;;;;6144848;23;20100;-81
2023/04/09 13:51:40;;;;;;;7.57;4.63;;;;;;;;;;6118843;23;20686;-82
2023/04/09 13:54:07;;;;;;;8.48;5.05;;;;;;;;;;6119124;23;20025;-83
2023/04/09 13:56:33;;;;;;;8.75;4.65;;;;;;;;;;6144567;23;20021;-83
2023/04/09 13:58:58;;;;;;;7.95;4.50;;;;;;;;;;6119115;23;20444;-82
2023/04/09 14:01:26;;;;;;;7.10;4.03;;;;;;;;;;6144402;23;20040;-83
2023/04/09 14:03:51;;;;;;;;;;;;;;;;;;6120042;23;20009;-84
2023/04/09 14:06:16;;;;;;;9.57;5.35;;;;;;;;;;6118438;23;19964;-84
2023/04/09 14:08:42;;;;;;;8.55;4.70;;;;;;;;;;6118820;23;20097;-83
2023/04/09 14:11:07;;;;;;;8.10;5.13;;;;;;;;;;6145148;23;20080;-84
2023/04/09 14:13:33;;;;;;;9.60;5.18;;;;;;;;;;6118420;23;20077;-84
2023/04/09 14:15:58;;;;;;;10.23;5.55;;;;;;;;;;6144675;23;20047;-84
2023/04/09 14:18:23;;;;;;;8.75;5.35;;;;;;;;;;6118939;23;20080;-85
2023/04/09 14:20:49;;;;;;;9.38;4.93;;;;;;;;;;6144231;23;20069;-82